Weather History for Fort Morgan, CO

Change the Weather History Date:

Wednesday, October 9, 2013

  Actual Average (KAKO) Record (KAKO)
Temperature  
Mean Temperature 54 °F 53 °F  
Max Temperature 66 °F 66 °F 87 °F (2003)
Min Temperature 41 °F 39 °F 21 °F (1970)
Degree Days  
Heating Degree Days 12    
Month to date heating degree days  
Cooling Degree Days 0    
Month to date cooling degree days  
Growing Degree Days 4 (Base 50)    
Moisture  
Dew Point 38 °F    
Average Humidity 57    
Maximum Humidity 79    
Minimum Humidity 38    
Precipitation  
Precipitation 0.00 in 0.04 in 0.42 in (1949)
Month to date precipitation 0.38  
Year to date precipitation 15.03  
Sea Level Pressure  
Sea Level Pressure 29.91 in    
Wind  
Wind Speed 9 mph (North)    
Max Wind Speed 15 mph    
Max Gust Speed 22 mph    
Visibility 10 miles    
Events      
T = Trace of Precipitation, MM = Missing Value Source: NWS Daily Summary

Daily Weather History Graph

Daily Weather History Graph

Search for Another Location

Airport:

Trip Planner

Search our weather history database for the weather conditions in past years. The results will help you decide how hot, cold, wet, or windy it might be!

Date:

Astronomy

Oct. 09, 2013 Rise Set
Actual Time 7:00 AM MDT 6:24 PM MDT
Civil Twilight 6:32 AM MDT 6:51 PM MDT
Nautical Twilight 6:01 AM MDT 7:22 PM MDT
Astronomical Twilight 5:29 AM MDT 7:54 PM MDT
Moon 11:58 AM MDT (10/9) 10:00 PM MDT (10/9)
Length of Visible Light 12h 18m
Length of Day
11h 24m
Waxing Crescent, 26% of the Moon is Illuminated
Oct 9
Waxing Crescent
Oct 11
First Quarter
Oct 18
Full
Oct 26
Last Quarter
Nov 3
New

Hourly Weather History & Observations

Time (MDT) Temp. Windchill Dew Point Humidity Pressure Visibility Wind Dir Wind Speed Gust Speed Precip Events Conditions
12:15 AM 53.8 °F - 32.4 °F 44% 29.76 in 10.0 mi NNW 11.5 mph - N/A   Clear
12:35 AM 54.5 °F - 32.0 °F 42% 29.77 in 10.0 mi WSW 3.5 mph - N/A   Clear
12:55 AM 50.5 °F - 33.4 °F 52% 29.79 in 10.0 mi West 6.9 mph - N/A   Clear
1:15 AM 52.7 °F - 32.2 °F 46% 29.79 in 10.0 mi West 9.2 mph - N/A   Clear
1:35 AM 48.7 °F - 32.2 °F 53% 29.80 in 10.0 mi NW 9.2 mph - N/A   Clear
1:55 AM 51.1 °F - 32.0 °F 48% 29.81 in 10.0 mi NW 8.1 mph - N/A   Clear
2:15 AM 52.2 °F - 31.6 °F 46% 29.82 in 10.0 mi NNW 13.8 mph - N/A   Clear
2:35 AM 53.4 °F - 31.1 °F 43% 29.81 in 10.0 mi North 13.8 mph - N/A   Clear
2:55 AM 53.4 °F - 31.1 °F 43% 29.81 in 10.0 mi North 15.0 mph - N/A   Clear
3:15 AM 53.2 °F - 32.0 °F 44% 29.82 in 10.0 mi North 15.0 mph - N/A   Clear
3:35 AM 52.0 °F - 32.7 °F 48% 29.82 in 10.0 mi North 13.8 mph - N/A   Clear
3:55 AM 52.2 °F - 33.1 °F 48% 29.83 in 10.0 mi North 13.8 mph - N/A   Clear
4:15 AM 50.5 °F - 33.8 °F 53% 29.83 in 10.0 mi North 13.8 mph - N/A   Clear
4:35 AM 51.4 °F - 34.0 °F 51% 29.84 in 10.0 mi NW 6.9 mph - N/A   Clear
4:55 AM 48.7 °F - 33.4 °F 56% 29.85 in 10.0 mi Calm Calm - N/A   Clear
5:15 AM 43.3 °F 40.7 °F 34.9 °F 72% 29.87 in 10.0 mi West 4.6 mph - N/A   Clear
5:35 AM 41.9 °F 36.9 °F 35.1 °F 77% 29.87 in 10.0 mi WNW 8.1 mph - N/A   Clear
5:55 AM 43.2 °F 40.5 °F 35.1 °F 73% 29.87 in 10.0 mi WNW 4.6 mph - N/A   Clear
6:15 AM 41.4 °F - 35.4 °F 79% 29.88 in 10.0 mi Calm Calm - N/A   Clear
6:35 AM 43.0 °F 40.3 °F 34.9 °F 73% 29.89 in 10.0 mi NNE 4.6 mph - N/A   Clear
6:55 AM 41.2 °F - 34.9 °F 78% 29.89 in 10.0 mi Calm Calm - N/A   Clear
7:15 AM 42.8 °F - 35.1 °F 74% 29.91 in 10.0 mi Calm Calm - N/A   Clear
7:35 AM 43.7 °F 40.3 °F 36.0 °F 74% 29.92 in 10.0 mi West 5.8 mph - N/A   Clear
7:55 AM 46.4 °F 42.4 °F 38.1 °F 73% 29.93 in 10.0 mi North 8.1 mph - N/A   Clear
8:15 AM 47.1 °F - 37.9 °F 70% 29.95 in 10.0 mi WNW 3.5 mph - N/A   Clear
8:35 AM 50.0 °F - 37.6 °F 62% 29.96 in 10.0 mi NNW 6.9 mph - N/A   Clear
8:55 AM 50.4 °F - 37.9 °F 62% 29.96 in 10.0 mi North 6.9 mph - N/A   Clear
9:15 AM 51.3 °F - 38.3 °F 61% 29.97 in 10.0 mi NNW 6.9 mph - N/A   Clear
9:35 AM 51.6 °F - 37.6 °F 59% 29.97 in 10.0 mi NNW 6.9 mph - N/A   Clear
9:55 AM 53.2 °F - 38.1 °F 57% 29.97 in 10.0 mi NNW 11.5 mph - N/A   Clear
10:15 AM 55.6 °F - 38.3 °F 52% 29.98 in 10.0 mi NNW 9.2 mph - N/A   Clear
10:35 AM 57.4 °F - 38.3 °F 49% 29.98 in 10.0 mi North 9.2 mph 16.1 mph N/A   Clear
10:55 AM 59.0 °F - 38.7 °F 47% 29.97 in 10.0 mi NW 5.8 mph - N/A   Clear
11:15 AM 60.3 °F - 38.7 °F 45% 29.96 in 10.0 mi North 10.4 mph - N/A   Clear
11:35 AM 61.5 °F - 38.7 °F 43% 29.96 in 10.0 mi North 11.5 mph - N/A   Clear
11:55 AM 62.1 °F - 38.8 °F 42% 29.96 in 10.0 mi NNE 9.2 mph - N/A   Clear
12:15 PM 62.8 °F - 38.8 °F 41% 29.95 in 10.0 mi NNE 9.2 mph - N/A   Clear
12:35 PM 63.7 °F - 38.8 °F 40% 29.95 in 10.0 mi NE 8.1 mph 16.1 mph N/A   Clear
12:55 PM 64.6 °F - 39.6 °F 40% 29.94 in 10.0 mi North 6.9 mph 16.1 mph N/A   Clear
1:15 PM 64.9 °F - 39.2 °F 39% 29.94 in 10.0 mi NNE 10.4 mph - N/A   Clear
1:35 PM 65.3 °F - 39.7 °F 39% 29.93 in 10.0 mi NNE 8.1 mph - N/A   Clear
1:55 PM 65.8 °F - 40.6 °F 40% 29.92 in 10.0 mi North 11.5 mph 16.1 mph N/A   Clear
2:15 PM 66.2 °F - 40.6 °F 39% 29.92 in 10.0 mi NNE 10.4 mph - N/A   Clear
2:55 PM 66.2 °F - 40.1 °F 38% 29.92 in 10.0 mi NE 11.5 mph 17.3 mph N/A   Clear
3:15 PM 66.6 °F - 40.1 °F 38% 29.91 in 10.0 mi NNE 12.7 mph 16.1 mph N/A   Clear
3:35 PM 66.2 °F - 40.3 °F 39% 29.91 in 10.0 mi NE 12.7 mph - N/A   Clear
3:55 PM 66.4 °F - 41.0 °F 40% 29.91 in 10.0 mi NE 12.7 mph - N/A   Clear
4:15 PM 65.3 °F - 40.8 °F 41% 29.91 in 10.0 mi NNE 12.7 mph 18.4 mph N/A   Clear
4:35 PM 64.0 °F - 40.5 °F 42% 29.91 in 10.0 mi NE 12.7 mph - N/A   Clear
4:55 PM 64.4 °F - 41.9 °F 44% 29.92 in 10.0 mi ENE 12.7 mph - N/A   Clear
5:15 PM 63.0 °F - 41.5 °F 45% 29.92 in 10.0 mi ENE 10.4 mph - N/A   Clear
5:55 PM 62.1 °F - 42.4 °F 49% 29.93 in 10.0 mi ENE 9.2 mph - N/A   Clear
6:15 PM 59.4 °F - 42.4 °F 54% 29.93 in 10.0 mi ENE 6.9 mph - N/A   Clear
6:35 PM 55.9 °F - 42.3 °F 60% 29.94 in 10.0 mi NE 5.8 mph - N/A   Clear
6:55 PM 53.6 °F - 42.1 °F 65% 29.94 in 7.0 mi North 8.1 mph - N/A   Clear
7:15 PM 52.9 °F - 42.6 °F 68% 29.94 in 10.0 mi North 9.2 mph - N/A   Clear
7:35 PM 53.2 °F - 44.2 °F 72% 29.94 in 10.0 mi North 10.4 mph - N/A   Clear
7:55 PM 53.2 °F - 44.4 °F 72% 29.95 in 10.0 mi North 10.4 mph - N/A   Clear
8:15 PM 52.9 °F - 44.1 °F 72% 29.95 in 10.0 mi North 10.4 mph - N/A   Clear
8:35 PM 52.9 °F - 43.9 °F 71% 29.95 in 10.0 mi North 11.5 mph - N/A   Clear
8:55 PM 52.2 °F - 43.7 °F 73% 29.95 in 10.0 mi North 11.5 mph - N/A   Clear
9:15 PM 51.8 °F - 43.7 °F 74% 29.95 in 10.0 mi North 12.7 mph - N/A   Clear
9:35 PM 50.4 °F - 43.7 °F 78% 29.96 in 10.0 mi North 12.7 mph - N/A   Clear
9:55 PM 50.7 °F - 43.7 °F 77% 29.96 in 10.0 mi North 11.5 mph - N/A   Clear
10:15 PM 50.0 °F - 43.2 °F 77% 29.97 in 10.0 mi North 12.7 mph - N/A   Clear
10:55 PM 48.6 °F - 41.0 °F 75% 29.97 in 10.0 mi North 15.0 mph 21.9 mph N/A   Clear
11:15 PM 47.8 °F - 40.5 °F 76% 29.97 in 10.0 mi North 15.0 mph - N/A   Clear
11:35 PM 47.5 °F - 40.3 °F 76% 29.96 in 10.0 mi North 12.7 mph - N/A   Clear
11:55 PM 46.2 °F 40.8 °F 39.6 °F 78% 29.96 in 10.0 mi NNE 11.5 mph - N/A   Clear